sensor_id;sensor_type;location;lat;lon;timestamp;P1;durP1;ratioP1;P2;durP2;ratioP2
74124;SDS011;62475;52.192;5.396;2022-10-16T00:01:30;8.88;;;1.42;;
74124;SDS011;62475;52.192;5.396;2022-10-16T00:03:56;4.70;;;1.60;;
74124;SDS011;62475;52.192;5.396;2022-10-16T00:06:23;2.17;;;1.30;;
74124;SDS011;62475;52.192;5.396;2022-10-16T00:08:49;4.57;;;1.17;;
74124;SDS011;62475;52.192;5.396;2022-10-16T00:11:16;4.22;;;1.33;;
74124;SDS011;62475;52.192;5.396;2022-10-16T00:13:47;3.90;;;1.65;;
74124;SDS011;62475;52.192;5.396;2022-10-16T00:16:13;5.60;;;1.60;;
74124;SDS011;62475;52.192;5.396;2022-10-16T00:18:40;4.63;;;1.58;;
74124;SDS011;62475;52.192;5.396;2022-10-16T00:21:10;3.53;;;1.70;;
74124;SDS011;62475;52.192;5.396;2022-10-16T00:23:38;6.32;;;1.75;;
74124;SDS011;62475;52.192;5.396;2022-10-16T00:26:08;1.85;;;1.30;;
74124;SDS011;62475;52.192;5.396;2022-10-16T00:28:41;4.15;;;1.23;;
74124;SDS011;62475;52.192;5.396;2022-10-16T00:31:08;4.93;;;1.60;;
74124;SDS011;62475;52.192;5.396;2022-10-16T00:33:35;7.20;;;1.60;;
74124;SDS011;62475;52.192;5.396;2022-10-16T00:36:01;4.20;;;1.83;;
74124;SDS011;62475;52.192;5.396;2022-10-16T00:38:28;2.47;;;1.40;;
74124;SDS011;62475;52.192;5.396;2022-10-16T00:40:54;3.10;;;1.55;;
74124;SDS011;62475;52.192;5.396;2022-10-16T00:46:00;5.22;;;1.75;;
74124;SDS011;62475;52.192;5.396;2022-10-16T00:48:27;4.38;;;1.77;;
74124;SDS011;62475;52.192;5.396;2022-10-16T00:50:52;6.15;;;1.80;;
74124;SDS011;62475;52.192;5.396;2022-10-16T00:53:18;4.68;;;2.03;;
74124;SDS011;62475;52.192;5.396;2022-10-16T00:55:44;5.30;;;1.63;;
74124;SDS011;62475;52.192;5.396;2022-10-16T00:58:10;3.10;;;2.08;;
74124;SDS011;62475;52.192;5.396;2022-10-16T01:00:36;2.45;;;1.50;;
74124;SDS011;62475;52.192;5.396;2022-10-16T01:03:01;5.97;;;1.90;;
74124;SDS011;62475;52.192;5.396;2022-10-16T01:05:49;3.35;;;1.90;;
74124;SDS011;62475;52.192;5.396;2022-10-16T01:08:21;3.55;;;1.33;;
74124;SDS011;62475;52.192;5.396;2022-10-16T01:10:57;4.78;;;1.73;;
74124;SDS011;62475;52.192;5.396;2022-10-16T01:19:09;6.05;;;1.77;;
74124;SDS011;62475;52.192;5.396;2022-10-16T01:21:42;3.75;;;1.90;;
74124;SDS011;62475;52.192;5.396;2022-10-16T01:24:23;4.72;;;2.00;;
74124;SDS011;62475;52.192;5.396;2022-10-16T01:29:34;2.20;;;1.77;;
74124;SDS011;62475;52.192;5.396;2022-10-16T01:32:31;3.78;;;1.77;;
74124;SDS011;62475;52.192;5.396;2022-10-16T01:37:41;7.90;;;2.00;;
74124;SDS011;62475;52.192;5.396;2022-10-16T01:40:11;4.15;;;1.85;;
74124;SDS011;62475;52.192;5.396;2022-10-16T01:42:41;2.63;;;1.75;;
74124;SDS011;62475;52.192;5.396;2022-10-16T01:45:10;5.93;;;1.75;;
74124;SDS011;62475;52.192;5.396;2022-10-16T01:47:39;3.17;;;2.58;;
74124;SDS011;62475;52.192;5.396;2022-10-16T01:50:06;5.30;;;2.25;;
74124;SDS011;62475;52.192;5.396;2022-10-16T01:52:34;3.90;;;1.92;;
74124;SDS011;62475;52.192;5.396;2022-10-16T01:55:03;5.50;;;2.13;;
74124;SDS011;62475;52.192;5.396;2022-10-16T01:57:31;3.75;;;1.85;;
74124;SDS011;62475;52.192;5.396;2022-10-16T02:00:01;5.45;;;2.50;;
74124;SDS011;62475;52.192;5.396;2022-10-16T02:02:31;3.90;;;2.05;;
74124;SDS011;62475;52.192;5.396;2022-10-16T02:07:52;4.00;;;2.03;;
74124;SDS011;62475;52.192;5.396;2022-10-16T02:10:18;4.22;;;2.30;;
74124;SDS011;62475;52.192;5.396;2022-10-16T02:13:26;8.27;;;2.60;;
74124;SDS011;62475;52.192;5.396;2022-10-16T02:15:38;4.18;;;2.47;;
74124;SDS011;62475;52.192;5.396;2022-10-16T02:18:04;4.60;;;2.42;;
74124;SDS011;62475;52.192;5.396;2022-10-16T02:20:32;5.57;;;2.42;;
74124;SDS011;62475;52.192;5.396;2022-10-16T02:23:03;3.30;;;2.08;;
74124;SDS011;62475;52.192;5.396;2022-10-16T02:25:30;3.17;;;2.30;;
74124;SDS011;62475;52.192;5.396;2022-10-16T02:30:41;3.38;;;2.45;;
74124;SDS011;62475;52.192;5.396;2022-10-16T02:33:10;3.92;;;2.47;;
74124;SDS011;62475;52.192;5.396;2022-10-16T02:35:38;6.82;;;3.20;;
74124;SDS011;62475;52.192;5.396;2022-10-16T02:38:06;5.88;;;2.30;;
74124;SDS011;62475;52.192;5.396;2022-10-16T02:40:36;3.80;;;2.30;;
74124;SDS011;62475;52.192;5.396;2022-10-16T02:43:03;3.30;;;1.73;;
74124;SDS011;62475;52.192;5.396;2022-10-16T02:45:29;5.32;;;2.42;;
74124;SDS011;62475;52.192;5.396;2022-10-16T02:47:57;5.43;;;2.30;;
74124;SDS011;62475;52.192;5.396;2022-10-16T02:50:22;3.13;;;2.17;;
74124;SDS011;62475;52.192;5.396;2022-10-16T02:52:49;5.90;;;2.20;;
74124;SDS011;62475;52.192;5.396;2022-10-16T02:55:15;5.00;;;2.28;;
74124;SDS011;62475;52.192;5.396;2022-10-16T02:57:40;4.25;;;2.35;;
74124;SDS011;62475;52.192;5.396;2022-10-16T03:00:09;3.30;;;2.10;;
74124;SDS011;62475;52.192;5.396;2022-10-16T03:02:37;3.78;;;2.08;;
74124;SDS011;62475;52.192;5.396;2022-10-16T03:05:03;3.25;;;2.03;;
74124;SDS011;62475;52.192;5.396;2022-10-16T03:07:29;4.40;;;2.00;;
74124;SDS011;62475;52.192;5.396;2022-10-16T03:09:54;2.80;;;2.08;;
74124;SDS011;62475;52.192;5.396;2022-10-16T03:12:20;3.65;;;1.77;;
74124;SDS011;62475;52.192;5.396;2022-10-16T03:14:51;2.88;;;1.95;;
74124;SDS011;62475;52.192;5.396;2022-10-16T03:17:16;4.50;;;1.95;;
74124;SDS011;62475;52.192;5.396;2022-10-16T03:19:42;4.18;;;2.05;;
74124;SDS011;62475;52.192;5.396;2022-10-16T03:22:07;2.83;;;1.87;;
74124;SDS011;62475;52.192;5.396;2022-10-16T03:24:33;4.00;;;1.92;;
74124;SDS011;62475;52.192;5.396;2022-10-16T03:26:58;2.85;;;2.15;;
74124;SDS011;62475;52.192;5.396;2022-10-16T03:29:24;4.55;;;2.00;;
74124;SDS011;62475;52.192;5.396;2022-10-16T03:31:50;3.72;;;1.90;;
74124;SDS011;62475;52.192;5.396;2022-10-16T03:34:16;4.90;;;2.25;;
74124;SDS011;62475;52.192;5.396;2022-10-16T03:36:41;5.43;;;1.98;;
74124;SDS011;62475;52.192;5.396;2022-10-16T03:39:07;5.00;;;2.45;;
74124;SDS011;62475;52.192;5.396;2022-10-16T03:41:32;2.85;;;1.85;;
74124;SDS011;62475;52.192;5.396;2022-10-16T03:43:57;4.60;;;2.28;;
74124;SDS011;62475;52.192;5.396;2022-10-16T03:46:23;5.00;;;2.90;;
74124;SDS011;62475;52.192;5.396;2022-10-16T03:48:48;4.45;;;1.90;;
74124;SDS011;62475;52.192;5.396;2022-10-16T03:51:13;4.10;;;2.10;;
74124;SDS011;62475;52.192;5.396;2022-10-16T03:53:38;3.75;;;1.75;;
74124;SDS011;62475;52.192;5.396;2022-10-16T03:56:04;2.83;;;2.10;;
74124;SDS011;62475;52.192;5.396;2022-10-16T03:58:30;2.97;;;1.70;;
74124;SDS011;62475;52.192;5.396;2022-10-16T04:00:55;3.13;;;1.65;;
74124;SDS011;62475;52.192;5.396;2022-10-16T04:03:20;3.92;;;2.13;;
74124;SDS011;62475;52.192;5.396;2022-10-16T04:05:46;2.42;;;1.70;;
74124;SDS011;62475;52.192;5.396;2022-10-16T04:08:12;2.63;;;1.30;;
74124;SDS011;62475;52.192;5.396;2022-10-16T04:10:37;2.92;;;1.77;;
74124;SDS011;62475;52.192;5.396;2022-10-16T04:13:02;5.07;;;1.70;;
74124;SDS011;62475;52.192;5.396;2022-10-16T04:15:28;4.72;;;1.63;;
74124;SDS011;62475;52.192;5.396;2022-10-16T04:17:53;3.15;;;1.58;;
74124;SDS011;62475;52.192;5.396;2022-10-16T04:20:19;4.53;;;1.85;;
74124;SDS011;62475;52.192;5.396;2022-10-16T04:22:44;3.72;;;1.85;;
74124;SDS011;62475;52.192;5.396;2022-10-16T04:25:09;3.35;;;1.75;;
74124;SDS011;62475;52.192;5.396;2022-10-16T04:27:38;6.63;;;1.85;;
74124;SDS011;62475;52.192;5.396;2022-10-16T04:30:04;2.63;;;1.63;;
74124;SDS011;62475;52.192;5.396;2022-10-16T04:32:30;4.70;;;1.73;;
74124;SDS011;62475;52.192;5.396;2022-10-16T04:34:55;5.80;;;1.75;;
74124;SDS011;62475;52.192;5.396;2022-10-16T04:37:24;2.30;;;1.55;;
74124;SDS011;62475;52.192;5.396;2022-10-16T04:39:51;6.07;;;2.20;;
74124;SDS011;62475;52.192;5.396;2022-10-16T04:42:16;3.42;;;1.73;;
74124;SDS011;62475;52.192;5.396;2022-10-16T04:44:42;4.32;;;1.67;;
74124;SDS011;62475;52.192;5.396;2022-10-16T04:47:07;3.30;;;1.75;;
74124;SDS011;62475;52.192;5.396;2022-10-16T04:49:33;3.17;;;1.70;;
74124;SDS011;62475;52.192;5.396;2022-10-16T04:51:58;3.85;;;1.40;;
74124;SDS011;62475;52.192;5.396;2022-10-16T04:54:23;2.78;;;1.60;;
74124;SDS011;62475;52.192;5.396;2022-10-16T04:56:48;4.43;;;1.83;;
74124;SDS011;62475;52.192;5.396;2022-10-16T04:59:16;2.78;;;1.83;;
74124;SDS011;62475;52.192;5.396;2022-10-16T05:01:42;4.55;;;1.67;;
74124;SDS011;62475;52.192;5.396;2022-10-16T05:04:08;4.78;;;1.50;;
74124;SDS011;62475;52.192;5.396;2022-10-16T05:06:33;4.05;;;2.15;;
74124;SDS011;62475;52.192;5.396;2022-10-16T05:08:59;1.92;;;1.50;;
74124;SDS011;62475;52.192;5.396;2022-10-16T05:11:24;1.90;;;1.42;;
74124;SDS011;62475;52.192;5.396;2022-10-16T05:13:49;3.27;;;2.10;;
74124;SDS011;62475;52.192;5.396;2022-10-16T05:16:15;5.93;;;2.60;;
74124;SDS011;62475;52.192;5.396;2022-10-16T05:18:40;4.38;;;1.92;;
74124;SDS011;62475;52.192;5.396;2022-10-16T05:21:06;4.72;;;1.73;;
74124;SDS011;62475;52.192;5.396;2022-10-16T05:23:34;2.55;;;1.70;;
74124;SDS011;62475;52.192;5.396;2022-10-16T05:26:00;3.13;;;1.67;;
74124;SDS011;62475;52.192;5.396;2022-10-16T05:28:26;3.17;;;2.15;;
74124;SDS011;62475;52.192;5.396;2022-10-16T05:30:52;5.57;;;2.33;;
74124;SDS011;62475;52.192;5.396;2022-10-16T05:33:22;3.45;;;2.15;;
74124;SDS011;62475;52.192;5.396;2022-10-16T05:35:49;5.22;;;2.63;;
74124;SDS011;62475;52.192;5.396;2022-10-16T05:38:15;3.17;;;2.15;;
74124;SDS011;62475;52.192;5.396;2022-10-16T05:40:41;4.13;;;2.10;;
74124;SDS011;62475;52.192;5.396;2022-10-16T05:43:07;4.90;;;2.60;;
74124;SDS011;62475;52.192;5.396;2022-10-16T05:45:32;3.58;;;1.77;;
74124;SDS011;62475;52.192;5.396;2022-10-16T05:47:58;5.00;;;2.00;;
74124;SDS011;62475;52.192;5.396;2022-10-16T05:50:24;2.50;;;1.80;;
74124;SDS011;62475;52.192;5.396;2022-10-16T05:52:50;3.97;;;1.80;;
74124;SDS011;62475;52.192;5.396;2022-10-16T05:55:15;5.03;;;2.15;;
74124;SDS011;62475;52.192;5.396;2022-10-16T05:57:40;4.80;;;2.40;;
74124;SDS011;62475;52.192;5.396;2022-10-16T06:00:06;6.75;;;2.53;;
74124;SDS011;62475;52.192;5.396;2022-10-16T06:02:31;4.03;;;2.60;;
74124;SDS011;62475;52.192;5.396;2022-10-16T06:04:57;4.07;;;1.97;;
74124;SDS011;62475;52.192;5.396;2022-10-16T06:07:22;2.57;;;1.83;;
74124;SDS011;62475;52.192;5.396;2022-10-16T06:09:48;4.53;;;2.30;;
74124;SDS011;62475;52.192;5.396;2022-10-16T06:12:15;3.75;;;2.47;;
74124;SDS011;62475;52.192;5.396;2022-10-16T06:14:40;3.38;;;2.35;;
74124;SDS011;62475;52.192;5.396;2022-10-16T06:17:06;7.40;;;2.67;;
74124;SDS011;62475;52.192;5.396;2022-10-16T06:19:31;5.75;;;2.38;;
74124;SDS011;62475;52.192;5.396;2022-10-16T06:21:56;3.65;;;2.72;;
74124;SDS011;62475;52.192;5.396;2022-10-16T06:24:23;5.43;;;2.58;;
74124;SDS011;62475;52.192;5.396;2022-10-16T06:26:48;7.35;;;3.15;;
74124;SDS011;62475;52.192;5.396;2022-10-16T06:29:13;3.58;;;2.45;;
74124;SDS011;62475;52.192;5.396;2022-10-16T06:31:39;6.38;;;2.55;;
74124;SDS011;62475;52.192;5.396;2022-10-16T06:34:04;7.57;;;3.10;;
74124;SDS011;62475;52.192;5.396;2022-10-16T06:36:34;3.38;;;2.38;;
74124;SDS011;62475;52.192;5.396;2022-10-16T06:38:59;4.10;;;2.50;;
74124;SDS011;62475;52.192;5.396;2022-10-16T06:41:25;8.05;;;3.50;;
74124;SDS011;62475;52.192;5.396;2022-10-16T06:43:50;4.07;;;2.67;;
74124;SDS011;62475;52.192;5.396;2022-10-16T06:46:18;4.47;;;2.88;;
74124;SDS011;62475;52.192;5.396;2022-10-16T06:53:39;6.25;;;2.83;;
74124;SDS011;62475;52.192;5.396;2022-10-16T06:56:10;4.20;;;2.63;;
74124;SDS011;62475;52.192;5.396;2022-10-16T06:58:38;5.30;;;2.83;;
74124;SDS011;62475;52.192;5.396;2022-10-16T07:01:03;4.13;;;2.35;;
74124;SDS011;62475;52.192;5.396;2022-10-16T07:03:30;4.15;;;2.38;;
74124;SDS011;62475;52.192;5.396;2022-10-16T07:06:01;4.43;;;2.60;;
74124;SDS011;62475;52.192;5.396;2022-10-16T07:08:30;4.97;;;3.00;;
74124;SDS011;62475;52.192;5.396;2022-10-16T07:13:32;4.82;;;2.38;;
74124;SDS011;62475;52.192;5.396;2022-10-16T07:16:03;7.05;;;1.95;;
74124;SDS011;62475;52.192;5.396;2022-10-16T07:18:32;4.93;;;1.75;;
74124;SDS011;62475;52.192;5.396;2022-10-16T07:21:04;3.92;;;1.85;;
74124;SDS011;62475;52.192;5.396;2022-10-16T07:23:31;3.75;;;1.50;;
74124;SDS011;62475;52.192;5.396;2022-10-16T07:25:56;5.60;;;1.75;;
74124;SDS011;62475;52.192;5.396;2022-10-16T07:28:22;2.97;;;1.60;;
74124;SDS011;62475;52.192;5.396;2022-10-16T07:30:47;4.00;;;1.90;;
74124;SDS011;62475;52.192;5.396;2022-10-16T07:33:13;3.33;;;2.33;;
74124;SDS011;62475;52.192;5.396;2022-10-16T07:35:46;4.45;;;2.00;;
74124;SDS011;62475;52.192;5.396;2022-10-16T07:38:12;5.65;;;1.92;;
74124;SDS011;62475;52.192;5.396;2022-10-16T07:40:38;3.30;;;1.55;;
74124;SDS011;62475;52.192;5.396;2022-10-16T07:43:03;5.07;;;1.88;;
74124;SDS011;62475;52.192;5.396;2022-10-16T07:45:30;4.35;;;1.33;;
74124;SDS011;62475;52.192;5.396;2022-10-16T07:47:55;6.45;;;2.00;;
74124;SDS011;62475;52.192;5.396;2022-10-16T07:50:21;3.30;;;0.98;;
74124;SDS011;62475;52.192;5.396;2022-10-16T07:52:46;2.67;;;1.60;;
74124;SDS011;62475;52.192;5.396;2022-10-16T07:55:11;4.80;;;1.77;;
74124;SDS011;62475;52.192;5.396;2022-10-16T07:57:37;2.95;;;1.70;;
74124;SDS011;62475;52.192;5.396;2022-10-16T08:00:02;6.65;;;1.80;;
74124;SDS011;62475;52.192;5.396;2022-10-16T08:02:28;4.57;;;1.33;;
74124;SDS011;62475;52.192;5.396;2022-10-16T08:04:53;4.40;;;1.30;;
74124;SDS011;62475;52.192;5.396;2022-10-16T08:07:18;5.13;;;1.70;;
74124;SDS011;62475;52.192;5.396;2022-10-16T08:09:44;3.40;;;1.80;;
74124;SDS011;62475;52.192;5.396;2022-10-16T08:12:09;3.20;;;2.15;;
74124;SDS011;62475;52.192;5.396;2022-10-16T08:14:35;4.25;;;2.00;;
74124;SDS011;62475;52.192;5.396;2022-10-16T08:17:01;3.63;;;2.28;;
74124;SDS011;62475;52.192;5.396;2022-10-16T08:19:27;4.95;;;2.15;;
74124;SDS011;62475;52.192;5.396;2022-10-16T08:21:52;5.38;;;2.42;;
74124;SDS011;62475;52.192;5.396;2022-10-16T08:24:18;3.40;;;2.10;;
74124;SDS011;62475;52.192;5.396;2022-10-16T08:26:43;3.88;;;2.45;;
74124;SDS011;62475;52.192;5.396;2022-10-16T08:29:08;5.63;;;2.30;;
74124;SDS011;62475;52.192;5.396;2022-10-16T08:31:33;5.18;;;2.40;;
74124;SDS011;62475;52.192;5.396;2022-10-16T08:33:59;5.83;;;2.30;;
74124;SDS011;62475;52.192;5.396;2022-10-16T08:36:24;5.38;;;2.00;;
74124;SDS011;62475;52.192;5.396;2022-10-16T08:38:51;6.00;;;2.50;;
74124;SDS011;62475;52.192;5.396;2022-10-16T08:41:22;4.03;;;2.10;;
74124;SDS011;62475;52.192;5.396;2022-10-16T08:44:00;5.95;;;2.30;;
74124;SDS011;62475;52.192;5.396;2022-10-16T08:49:31;4.03;;;1.45;;
74124;SDS011;62475;52.192;5.396;2022-10-16T08:51:57;4.57;;;1.55;;
74124;SDS011;62475;52.192;5.396;2022-10-16T08:54:29;3.70;;;1.80;;
74124;SDS011;62475;52.192;5.396;2022-10-16T08:57:09;6.03;;;1.90;;
74124;SDS011;62475;52.192;5.396;2022-10-16T08:59:42;4.50;;;1.65;;
74124;SDS011;62475;52.192;5.396;2022-10-16T09:05:17;3.85;;;2.10;;
74124;SDS011;62475;52.192;5.396;2022-10-16T09:07:57;2.63;;;1.30;;
74124;SDS011;62475;52.192;5.396;2022-10-16T09:10:42;3.75;;;1.33;;
74124;SDS011;62475;52.192;5.396;2022-10-16T09:16:10;3.83;;;1.38;;
74124;SDS011;62475;52.192;5.396;2022-10-16T09:18:51;6.70;;;1.40;;
74124;SDS011;62475;52.192;5.396;2022-10-16T09:24:19;7.05;;;1.50;;
74124;SDS011;62475;52.192;5.396;2022-10-16T09:26:46;4.93;;;1.20;;
74124;SDS011;62475;52.192;5.396;2022-10-16T09:29:13;8.75;;;1.52;;
74124;SDS011;62475;52.192;5.396;2022-10-16T09:31:39;5.68;;;1.52;;
74124;SDS011;62475;52.192;5.396;2022-10-16T09:34:05;7.60;;;1.60;;
74124;SDS011;62475;52.192;5.396;2022-10-16T09:36:43;6.97;;;2.00;;
74124;SDS011;62475;52.192;5.396;2022-10-16T09:39:11;4.28;;;1.70;;
74124;SDS011;62475;52.192;5.396;2022-10-16T09:41:38;7.97;;;1.75;;
74124;SDS011;62475;52.192;5.396;2022-10-16T09:44:15;5.97;;;1.58;;
74124;SDS011;62475;52.192;5.396;2022-10-16T09:46:46;3.88;;;1.40;;
74124;SDS011;62475;52.192;5.396;2022-10-16T09:49:24;5.97;;;1.67;;
74124;SDS011;62475;52.192;5.396;2022-10-16T09:51:51;4.68;;;2.00;;
74124;SDS011;62475;52.192;5.396;2022-10-16T09:54:37;7.38;;;1.60;;
74124;SDS011;62475;52.192;5.396;2022-10-16T09:57:06;6.63;;;1.70;;
74124;SDS011;62475;52.192;5.396;2022-10-16T09:59:32;6.95;;;1.77;;
74124;SDS011;62475;52.192;5.396;2022-10-16T10:02:00;3.83;;;1.77;;
74124;SDS011;62475;52.192;5.396;2022-10-16T10:04:36;7.85;;;1.63;;
74124;SDS011;62475;52.192;5.396;2022-10-16T10:07:04;5.15;;;1.35;;
74124;SDS011;62475;52.192;5.396;2022-10-16T10:09:47;5.20;;;1.92;;
74124;SDS011;62475;52.192;5.396;2022-10-16T10:12:20;7.90;;;1.70;;
74124;SDS011;62475;52.192;5.396;2022-10-16T10:14:54;7.68;;;1.48;;
74124;SDS011;62475;52.192;5.396;2022-10-16T10:17:25;6.72;;;1.33;;
74124;SDS011;62475;52.192;5.396;2022-10-16T10:19:53;6.07;;;1.40;;
74124;SDS011;62475;52.192;5.396;2022-10-16T10:24:56;9.77;;;1.73;;
74124;SDS011;62475;52.192;5.396;2022-10-16T10:27:33;5.50;;;1.63;;
74124;SDS011;62475;52.192;5.396;2022-10-16T10:38:30;6.00;;;1.80;;
74124;SDS011;62475;52.192;5.396;2022-10-16T10:46:34;8.23;;;1.80;;
74124;SDS011;62475;52.192;5.396;2022-10-16T10:55:08;9.50;;;1.98;;
74124;SDS011;62475;52.192;5.396;2022-10-16T11:06:30;5.95;;;1.92;;
74124;SDS011;62475;52.192;5.396;2022-10-16T11:09:21;8.90;;;2.38;;
74124;SDS011;62475;52.192;5.396;2022-10-16T11:11:55;6.97;;;1.60;;
74124;SDS011;62475;52.192;5.396;2022-10-16T11:14:29;5.38;;;1.38;;
74124;SDS011;62475;52.192;5.396;2022-10-16T11:19:49;5.45;;;1.30;;
74124;SDS011;62475;52.192;5.396;2022-10-16T11:25:20;5.88;;;1.38;;
74124;SDS011;62475;52.192;5.396;2022-10-16T11:30:20;8.10;;;1.50;;
74124;SDS011;62475;52.192;5.396;2022-10-16T11:35:53;9.32;;;1.50;;
74124;SDS011;62475;52.192;5.396;2022-10-16T11:43:41;6.93;;;1.47;;
74124;SDS011;62475;52.192;5.396;2022-10-16T11:46:13;5.40;;;1.98;;
74124;SDS011;62475;52.192;5.396;2022-10-16T11:48:44;6.15;;;1.40;;
74124;SDS011;62475;52.192;5.396;2022-10-16T11:51:25;5.40;;;1.58;;
74124;SDS011;62475;52.192;5.396;2022-10-16T11:57:17;10.27;;;2.00;;
74124;SDS011;62475;52.192;5.396;2022-10-16T12:08:06;5.43;;;1.60;;
74124;SDS011;62475;52.192;5.396;2022-10-16T12:10:36;2.80;;;1.00;;
74124;SDS011;62475;52.192;5.396;2022-10-16T12:13:05;3.78;;;0.95;;
74124;SDS011;62475;52.192;5.396;2022-10-16T12:16:19;4.10;;;1.10;;
74124;SDS011;62475;52.192;5.396;2022-10-16T12:18:47;6.30;;;1.98;;
74124;SDS011;62475;52.192;5.396;2022-10-16T12:21:14;6.80;;;1.23;;
74124;SDS011;62475;52.192;5.396;2022-10-16T12:23:49;3.50;;;1.40;;
74124;SDS011;62475;52.192;5.396;2022-10-16T12:26:15;8.25;;;2.55;;
74124;SDS011;62475;52.192;5.396;2022-10-16T12:28:49;5.88;;;1.50;;
74124;SDS011;62475;52.192;5.396;2022-10-16T12:31:16;6.38;;;1.27;;
74124;SDS011;62475;52.192;5.396;2022-10-16T12:33:56;4.88;;;1.35;;
74124;SDS011;62475;52.192;5.396;2022-10-16T12:36:31;4.88;;;1.17;;
74124;SDS011;62475;52.192;5.396;2022-10-16T12:38:58;7.97;;;1.30;;
74124;SDS011;62475;52.192;5.396;2022-10-16T12:43:50;6.77;;;1.43;;
74124;SDS011;62475;52.192;5.396;2022-10-16T12:48:41;9.27;;;1.30;;
74124;SDS011;62475;52.192;5.396;2022-10-16T12:53:46;8.40;;;1.70;;
74124;SDS011;62475;52.192;5.396;2022-10-16T12:56:24;7.65;;;2.78;;
74124;SDS011;62475;52.192;5.396;2022-10-16T13:04:26;9.85;;;1.48;;
74124;SDS011;62475;52.192;5.396;2022-10-16T13:07:04;5.72;;;1.35;;
74124;SDS011;62475;52.192;5.396;2022-10-16T13:12:41;2.80;;;0.98;;
74124;SDS011;62475;52.192;5.396;2022-10-16T13:28:32;7.28;;;1.70;;
74124;SDS011;62475;52.192;5.396;2022-10-16T13:30:59;4.78;;;1.10;;
74124;SDS011;62475;52.192;5.396;2022-10-16T13:33:30;8.32;;;1.30;;
74124;SDS011;62475;52.192;5.396;2022-10-16T13:36:01;4.32;;;1.10;;
74124;SDS011;62475;52.192;5.396;2022-10-16T13:38:31;7.75;;;1.25;;
74124;SDS011;62475;52.192;5.396;2022-10-16T13:41:03;5.25;;;1.02;;
74124;SDS011;62475;52.192;5.396;2022-10-16T13:46:10;5.75;;;1.00;;
74124;SDS011;62475;52.192;5.396;2022-10-16T13:48:37;4.40;;;1.05;;
74124;SDS011;62475;52.192;5.396;2022-10-16T13:51:04;10.07;;;1.45;;
74124;SDS011;62475;52.192;5.396;2022-10-16T13:53:35;5.88;;;1.02;;
74124;SDS011;62475;52.192;5.396;2022-10-16T13:56:05;4.28;;;1.10;;
74124;SDS011;62475;52.192;5.396;2022-10-16T13:58:32;6.85;;;0.88;;
74124;SDS011;62475;52.192;5.396;2022-10-16T14:00:59;4.82;;;0.80;;
74124;SDS011;62475;52.192;5.396;2022-10-16T14:03:26;5.28;;;1.05;;
74124;SDS011;62475;52.192;5.396;2022-10-16T14:06:16;4.28;;;1.00;;
74124;SDS011;62475;52.192;5.396;2022-10-16T14:08:50;6.15;;;1.02;;
74124;SDS011;62475;52.192;5.396;2022-10-16T14:11:22;5.60;;;1.10;;
74124;SDS011;62475;52.192;5.396;2022-10-16T14:13:49;10.73;;;1.20;;
74124;SDS011;62475;52.192;5.396;2022-10-16T14:16:23;4.47;;;0.93;;
74124;SDS011;62475;52.192;5.396;2022-10-16T14:21:25;5.55;;;1.40;;
74124;SDS011;62475;52.192;5.396;2022-10-16T14:23:52;6.25;;;1.33;;
74124;SDS011;62475;52.192;5.396;2022-10-16T14:26:18;8.50;;;0.95;;
74124;SDS011;62475;52.192;5.396;2022-10-16T14:28:47;4.55;;;1.17;;
74124;SDS011;62475;52.192;5.396;2022-10-16T14:33:44;6.03;;;1.40;;
74124;SDS011;62475;52.192;5.396;2022-10-16T14:38:35;6.00;;;1.15;;
74124;SDS011;62475;52.192;5.396;2022-10-16T14:41:03;4.65;;;1.20;;
74124;SDS011;62475;52.192;5.396;2022-10-16T14:43:31;7.03;;;1.10;;
74124;SDS011;62475;52.192;5.396;2022-10-16T14:45:58;5.28;;;0.90;;
74124;SDS011;62475;52.192;5.396;2022-10-16T14:48:25;4.13;;;0.98;;
74124;SDS011;62475;52.192;5.396;2022-10-16T14:50:50;5.97;;;1.60;;
74124;SDS011;62475;52.192;5.396;2022-10-16T14:53:16;7.22;;;1.15;;
74124;SDS011;62475;52.192;5.396;2022-10-16T14:55:41;5.82;;;1.27;;
74124;SDS011;62475;52.192;5.396;2022-10-16T14:58:20;3.10;;;1.05;;
74124;SDS011;62475;52.192;5.396;2022-10-16T15:00:47;4.82;;;1.20;;
74124;SDS011;62475;52.192;5.396;2022-10-16T15:03:13;4.60;;;1.40;;
74124;SDS011;62475;52.192;5.396;2022-10-16T15:05:39;6.78;;;1.63;;
74124;SDS011;62475;52.192;5.396;2022-10-16T15:08:04;6.00;;;1.20;;
74124;SDS011;62475;52.192;5.396;2022-10-16T15:10:30;4.97;;;1.33;;
74124;SDS011;62475;52.192;5.396;2022-10-16T15:12:57;9.73;;;2.17;;
74124;SDS011;62475;52.192;5.396;2022-10-16T15:17:57;9.07;;;1.10;;
74124;SDS011;62475;52.192;5.396;2022-10-16T15:20:29;8.48;;;1.50;;
74124;SDS011;62475;52.192;5.396;2022-10-16T15:22:58;8.90;;;1.40;;
74124;SDS011;62475;52.192;5.396;2022-10-16T15:28:23;5.53;;;1.23;;
74124;SDS011;62475;52.192;5.396;2022-10-16T15:30:51;7.40;;;1.60;;
74124;SDS011;62475;52.192;5.396;2022-10-16T15:33:19;4.53;;;1.30;;
74124;SDS011;62475;52.192;5.396;2022-10-16T15:35:48;4.25;;;1.63;;
74124;SDS011;62475;52.192;5.396;2022-10-16T15:38:15;8.48;;;1.30;;
74124;SDS011;62475;52.192;5.396;2022-10-16T15:40:41;11.25;;;1.38;;
74124;SDS011;62475;52.192;5.396;2022-10-16T15:43:07;7.63;;;1.58;;
74124;SDS011;62475;52.192;5.396;2022-10-16T15:45:32;5.70;;;1.30;;
74124;SDS011;62475;52.192;5.396;2022-10-16T15:47:58;6.97;;;1.58;;
74124;SDS011;62475;52.192;5.396;2022-10-16T15:50:24;9.88;;;1.30;;
74124;SDS011;62475;52.192;5.396;2022-10-16T15:52:49;9.77;;;2.50;;
74124;SDS011;62475;52.192;5.396;2022-10-16T15:55:35;7.72;;;1.60;;
74124;SDS011;62475;52.192;5.396;2022-10-16T15:58:02;3.15;;;1.20;;
74124;SDS011;62475;52.192;5.396;2022-10-16T16:00:28;8.32;;;1.52;;
74124;SDS011;62475;52.192;5.396;2022-10-16T16:02:53;5.47;;;1.40;;
74124;SDS011;62475;52.192;5.396;2022-10-16T16:05:19;5.25;;;1.60;;
74124;SDS011;62475;52.192;5.396;2022-10-16T16:07:46;6.90;;;1.70;;
74124;SDS011;62475;52.192;5.396;2022-10-16T16:10:11;6.35;;;1.75;;
74124;SDS011;62475;52.192;5.396;2022-10-16T16:12:37;9.73;;;2.67;;
74124;SDS011;62475;52.192;5.396;2022-10-16T16:15:03;9.07;;;2.17;;
74124;SDS011;62475;52.192;5.396;2022-10-16T16:17:30;10.63;;;2.67;;
74124;SDS011;62475;52.192;5.396;2022-10-16T16:19:56;8.40;;;2.40;;
74124;SDS011;62475;52.192;5.396;2022-10-16T16:22:21;7.10;;;2.30;;
74124;SDS011;62475;52.192;5.396;2022-10-16T16:24:47;10.05;;;2.58;;
74124;SDS011;62475;52.192;5.396;2022-10-16T16:27:12;7.17;;;2.43;;
74124;SDS011;62475;52.192;5.396;2022-10-16T16:29:38;9.95;;;3.17;;
74124;SDS011;62475;52.192;5.396;2022-10-16T16:32:04;12.88;;;3.20;;
74124;SDS011;62475;52.192;5.396;2022-10-16T16:34:30;7.90;;;2.63;;
74124;SDS011;62475;52.192;5.396;2022-10-16T16:37:09;4.40;;;1.85;;
74124;SDS011;62475;52.192;5.396;2022-10-16T16:39:34;6.78;;;2.22;;
74124;SDS011;62475;52.192;5.396;2022-10-16T16:41:59;8.18;;;2.72;;
74124;SDS011;62475;52.192;5.396;2022-10-16T16:44:25;8.57;;;2.72;;
74124;SDS011;62475;52.192;5.396;2022-10-16T16:46:51;9.45;;;2.85;;
74124;SDS011;62475;52.192;5.396;2022-10-16T16:49:16;7.10;;;2.80;;
74124;SDS011;62475;52.192;5.396;2022-10-16T16:51:41;11.95;;;2.70;;
74124;SDS011;62475;52.192;5.396;2022-10-16T16:54:07;5.15;;;1.85;;
74124;SDS011;62475;52.192;5.396;2022-10-16T16:56:34;6.10;;;2.50;;
74124;SDS011;62475;52.192;5.396;2022-10-16T16:59:00;5.60;;;2.85;;
74124;SDS011;62475;52.192;5.396;2022-10-16T17:01:26;5.63;;;2.00;;
74124;SDS011;62475;52.192;5.396;2022-10-16T17:03:53;6.40;;;2.40;;
74124;SDS011;62475;52.192;5.396;2022-10-16T17:06:21;7.43;;;2.22;;
74124;SDS011;62475;52.192;5.396;2022-10-16T17:08:48;5.97;;;2.67;;
74124;SDS011;62475;52.192;5.396;2022-10-16T17:11:19;10.82;;;2.72;;
74124;SDS011;62475;52.192;5.396;2022-10-16T17:13:46;10.38;;;2.97;;
74124;SDS011;62475;52.192;5.396;2022-10-16T17:16:12;10.68;;;3.60;;
74124;SDS011;62475;52.192;5.396;2022-10-16T17:18:37;11.90;;;3.45;;